Time;durP1;ratioP1;P1;durP2;ratioP2;P2;SDS_P1;SDS_P2;PMS_P1;PMS_P2;Temp;Humidity;BMP_temperature;BMP_pressure;BME280_temperature;BME280_humidity;BME280_pressure;Samples;Min_cycle;Max_cycle;Signal;HPM_P1;HPM_P2
2021/12/26 00:01:09;;;;;;;19.73;13.57;;;6.00;99.90;;;;;;4971755;28;20308;-52
2021/12/26 00:03:36;;;;;;;17.63;12.95;;;5.70;99.90;;;;;;4973289;28;20187;-52
2021/12/26 00:06:06;;;;;;;18.92;13.70;;;5.90;99.90;;;;;;4972613;28;20191;-52
2021/12/26 00:08:36;;;;;;;18.90;13.32;;;6.10;99.90;;;;;;4972608;28;20254;-52
2021/12/26 00:11:03;;;;;;;18.08;12.38;;;5.90;99.90;;;;;;4973390;28;20607;-52
2021/12/26 00:13:30;;;;;;;19.85;14.05;;;6.00;99.90;;;;;;4972441;28;20218;-52
2021/12/26 00:15:57;;;;;;;16.85;12.65;;;5.50;99.90;;;;;;4972708;28;20214;-52
2021/12/26 00:18:22;;;;;;;19.20;12.98;;;6.00;99.90;;;;;;4972265;28;20211;-52
2021/12/26 00:20:48;;;;;;;18.80;13.53;;;5.90;99.90;;;;;;4983745;28;20184;-52
2021/12/26 00:23:15;;;;;;;17.70;12.87;;;5.80;99.90;;;;;;4965487;28;20530;-52
2021/12/26 00:25:41;;;;;;;17.10;13.32;;;5.90;99.90;;;;;;4972787;28;20549;-52
2021/12/26 00:28:06;;;;;;;17.40;11.87;;;6.00;99.90;;;;;;4975261;28;20685;-52
2021/12/26 00:30:32;;;;;;;19.30;13.10;;;6.20;99.90;;;;;;4972071;28;20199;-52
2021/12/26 00:32:59;;;;;;;18.70;12.52;;;6.00;99.90;;;;;;4972652;28;20434;-52
2021/12/26 00:35:25;;;;;;;18.73;13.70;;;5.90;99.90;;;;;;4976139;28;20183;-52
2021/12/26 00:37:51;;;;;;;19.08;13.18;;;6.20;99.90;;;;;;4969719;28;20239;-52
2021/12/26 00:40:19;;;;;;;18.93;12.50;;;6.30;99.90;;;;;;4972020;28;20653;-52
2021/12/26 00:42:45;;;;;;;17.15;12.77;;;5.30;99.90;;;;;;4983536;28;20448;-51
2021/12/26 00:45:12;;;;;;;18.17;12.85;;;5.90;99.90;;;;;;4972049;28;20226;-52
2021/12/26 00:47:39;;;;;;;16.45;12.70;;;6.00;99.90;;;;;;4972229;28;20704;-52
2021/12/26 00:50:08;;;;;;;19.88;14.00;;;6.10;99.90;;;;;;4972162;28;20236;-52
2021/12/26 00:52:34;;;;;;;17.20;12.75;;;5.70;99.90;;;;;;4983691;28;20557;-52
2021/12/26 00:55:00;;;;;;;18.90;13.50;;;5.10;99.90;;;;;;4972310;28;20191;-53
2021/12/26 00:57:26;;;;;;;18.83;13.13;;;5.80;99.90;;;;;;4971237;28;21099;-53
2021/12/26 00:59:51;;;;;;;16.83;12.37;;;5.70;99.90;;;;;;4972456;28;20207;-53
2021/12/26 01:02:17;;;;;;;15.20;11.90;;;5.70;99.90;;;;;;4978607;28;20257;-52
2021/12/26 01:04:43;;;;;;;21.50;13.50;;;6.00;99.90;;;;;;4971956;28;20274;-54
2021/12/26 01:07:22;;;;;;;15.07;12.57;;;5.90;99.90;;;;;;4971358;28;20306;-51
2021/12/26 01:09:51;;;;;;;19.48;12.07;;;5.80;99.90;;;;;;4971628;28;20479;-52
2021/12/26 01:12:18;;;;;;;17.95;12.32;;;6.00;99.90;;;;;;4977353;28;20187;-54
2021/12/26 01:14:50;;;;;;;16.65;11.95;;;5.90;99.90;;;;;;4971975;28;20627;-52
2021/12/26 01:17:20;;;;;;;15.55;11.80;;;5.60;99.90;;;;;;4971946;28;20387;-52
2021/12/26 01:19:50;;;;;;;17.63;11.98;;;5.70;99.90;;;;;;4972148;28;20570;-52
2021/12/26 01:22:17;;;;;;;15.43;10.65;;;5.50;99.90;;;;;;4971539;28;20270;-52
2021/12/26 01:24:44;;;;;;;14.68;10.48;;;5.60;99.90;;;;;;4971786;28;20210;-52
2021/12/26 01:27:10;;;;;;;13.90;10.82;;;5.70;99.90;;;;;;4973380;28;20191;-52
2021/12/26 01:29:36;;;;;;;15.25;10.65;;;5.50;99.90;;;;;;4971536;28;20204;-52
2021/12/26 01:32:04;;;;;;;14.80;10.33;;;5.80;99.90;;;;;;4971860;28;20186;-52
2021/12/26 01:34:30;;;;;;;14.63;10.82;;;5.50;99.90;;;;;;4974779;28;20852;-52
2021/12/26 01:36:56;;;;;;;15.73;9.23;;;5.70;99.90;;;;;;4971047;28;20217;-52
2021/12/26 01:39:23;;;;;;;15.52;10.88;;;5.80;99.90;;;;;;4971437;28;20210;-52
2021/12/26 01:41:49;;;;;;;13.27;9.93;;;5.70;99.90;;;;;;4971760;28;20183;-52
2021/12/26 01:44:16;;;;;;;13.68;11.43;;;5.60;99.90;;;;;;4971446;28;20203;-52
2021/12/26 01:46:44;;;;;;;14.20;10.45;;;5.60;99.90;;;;;;4971730;28;20198;-52
2021/12/26 01:49:14;;;;;;;12.77;9.98;;;5.70;99.90;;;;;;4985856;28;20222;-52
2021/12/26 01:51:42;;;;;;;16.38;12.38;;;5.50;99.90;;;;;;4971049;28;20562;-51
2021/12/26 01:54:10;;;;;;;15.30;10.63;;;5.10;99.90;;;;;;4971737;28;20266;-52
2021/12/26 01:56:38;;;;;;;14.18;10.25;;;5.90;99.90;;;;;;4970780;28;20294;-52
2021/12/26 01:59:06;;;;;;;12.90;9.45;;;5.60;99.90;;;;;;4971109;28;20293;-51
2021/12/26 02:01:32;;;;;;;14.50;9.90;;;5.30;99.90;;;;;;4971829;28;20568;-52
2021/12/26 02:03:59;;;;;;;12.95;10.27;;;5.70;99.90;;;;;;4971475;28;20188;-52
2021/12/26 02:06:25;;;;;;;12.85;9.52;;;5.80;99.90;;;;;;4971036;28;20218;-52
2021/12/26 02:08:50;;;;;;;13.37;8.97;;;5.60;99.90;;;;;;4979283;28;20238;-52
2021/12/26 02:11:17;;;;;;;13.80;9.70;;;6.00;99.90;;;;;;4970851;28;20192;-52
2021/12/26 02:13:43;;;;;;;11.30;8.90;;;5.70;99.90;;;;;;4971235;28;20203;-52
2021/12/26 02:16:10;;;;;;;11.88;8.43;;;5.90;99.90;;;;;;4971147;28;20212;-52
2021/12/26 02:18:36;;;;;;;10.38;8.55;;;5.80;99.90;;;;;;4970806;28;20208;-52
2021/12/26 02:28:43;;;;;;;11.95;9.00;;;5.60;99.90;;;;;;4978069;28;21168;-52
2021/12/26 02:31:10;;;;;;;12.23;9.10;;;5.50;99.90;;;;;;4974888;28;20649;-52
2021/12/26 02:33:35;;;;;;;13.20;8.88;;;5.60;99.90;;;;;;4974779;28;20226;-52
2021/12/26 02:36:02;;;;;;;13.03;9.57;;;5.80;99.90;;;;;;4974165;28;20644;-52
2021/12/26 02:38:28;;;;;;;11.38;8.90;;;5.90;99.90;;;;;;4974148;28;20203;-52
2021/12/26 02:40:55;;;;;;;12.20;9.27;;;5.90;99.90;;;;;;4974439;28;20192;-52
2021/12/26 02:43:23;;;;;;;12.13;8.27;;;6.10;99.90;;;;;;4973808;28;20199;-53
2021/12/26 02:45:49;;;;;;;14.88;11.52;;;5.80;99.90;;;;;;4974590;28;20198;-53
2021/12/26 02:48:15;;;;;;;12.57;8.88;;;6.00;99.90;;;;;;4974734;28;20323;-53
2021/12/26 02:50:43;;;;;;;12.20;8.98;;;5.40;99.90;;;;;;4973958;28;20192;-52
2021/12/26 02:53:12;;;;;;;11.63;10.07;;;5.90;99.90;;;;;;4974404;28;20191;-53
2021/12/26 02:55:39;;;;;;;9.48;8.10;;;5.90;99.90;;;;;;4974221;28;20183;-52
2021/12/26 02:58:08;;;;;;;14.30;8.95;;;5.70;99.90;;;;;;4973387;28;20221;-52
2021/12/26 03:00:38;;;;;;;11.95;8.18;;;5.90;99.90;;;;;;4977090;28;20286;-52
2021/12/26 03:03:06;;;;;;;11.50;9.13;;;6.00;99.90;;;;;;4989196;28;20670;-52
2021/12/26 03:05:36;;;;;;;13.00;10.75;;;5.90;99.90;;;;;;4985258;28;20195;-52
2021/12/26 03:08:02;;;;;;;11.25;8.40;;;5.80;99.90;;;;;;4961340;28;20269;-52
2021/12/26 03:10:28;;;;;;;13.98;8.80;;;5.50;99.90;;;;;;4973937;28;20274;-52
2021/12/26 03:13:05;;;;;;;13.48;9.85;;;5.80;99.90;;;;;;4973402;28;20213;-52
2021/12/26 03:15:32;;;;;;;13.40;9.70;;;5.70;99.90;;;;;;4974303;28;20241;-52
2021/12/26 03:17:59;;;;;;;12.55;9.48;;;5.60;99.90;;;;;;4973634;28;20283;-52
2021/12/26 03:20:31;;;;;;;12.23;9.45;;;5.80;99.90;;;;;;4973838;28;20180;-52
2021/12/26 03:23:00;;;;;;;14.57;9.68;;;5.80;99.90;;;;;;4972184;28;20602;-52
2021/12/26 03:25:27;;;;;;;15.70;10.30;;;5.60;99.90;;;;;;4988827;28;20186;-52
2021/12/26 03:27:54;;;;;;;11.52;8.93;;;5.60;99.90;;;;;;4972885;28;20659;-52
2021/12/26 03:30:24;;;;;;;12.77;9.25;;;5.90;99.90;;;;;;4973652;28;20221;-52
2021/12/26 03:32:50;;;;;;;12.30;10.43;;;5.80;99.90;;;;;;4973670;28;20183;-52
2021/12/26 03:35:17;;;;;;;12.27;9.77;;;5.70;99.90;;;;;;4990919;28;20187;-52
2021/12/26 03:37:43;;;;;;;12.48;10.20;;;5.80;99.90;;;;;;4982699;28;20670;-53
2021/12/26 03:40:10;;;;;;;12.33;9.40;;;6.00;99.90;;;;;;4973499;28;20211;-52
2021/12/26 03:42:36;;;;;;;10.38;8.95;;;5.90;99.90;;;;;;4983768;28;20454;-52
2021/12/26 03:45:07;;;;;;;11.23;8.65;;;5.50;99.90;;;;;;4974773;28;20191;-52
2021/12/26 03:47:34;;;;;;;13.60;10.10;;;6.00;99.90;;;;;;4973343;28;20196;-52
2021/12/26 03:50:01;;;;;;;11.60;9.32;;;5.50;99.90;;;;;;4973779;28;20204;-52
2021/12/26 03:52:27;;;;;;;11.52;8.88;;;6.00;99.90;;;;;;4972900;28;20207;-53
2021/12/26 03:54:54;;;;;;;12.52;10.10;;;5.70;99.90;;;;;;4973271;28;20247;-52
2021/12/26 03:57:20;;;;;;;14.02;10.88;;;5.80;99.90;;;;;;4972269;28;20227;-52
2021/12/26 03:59:46;;;;;;;11.68;9.40;;;6.10;99.90;;;;;;4973056;28;20293;-52
2021/12/26 04:02:13;;;;;;;11.15;8.23;;;6.00;99.90;;;;;;4988125;28;20196;-52
2021/12/26 04:04:39;;;;;;;13.20;9.77;;;6.00;99.90;;;;;;4973250;28;20660;-52
2021/12/26 04:07:05;;;;;;;11.97;9.10;;;6.00;99.90;;;;;;4974666;28;20214;-52
2021/12/26 04:09:30;;;;;;;14.40;9.70;;;6.20;99.90;;;;;;4973095;28;20256;-52
2021/12/26 04:11:56;;;;;;;12.13;9.97;;;6.00;99.90;;;;;;4972397;28;20446;-52
2021/12/26 04:14:22;;;;;;;14.60;9.63;;;5.80;99.90;;;;;;4972895;28;20194;-52
2021/12/26 04:16:48;;;;;;;11.53;9.13;;;6.00;99.90;;;;;;4972499;28;20320;-52
2021/12/26 04:19:13;;;;;;;14.50;10.63;;;5.90;99.90;;;;;;4972577;28;21050;-52
2021/12/26 04:21:39;;;;;;;14.60;10.53;;;6.00;99.90;;;;;;4972175;28;20442;-52
2021/12/26 04:24:06;;;;;;;14.50;10.90;;;5.70;99.90;;;;;;4975265;28;20184;-52
2021/12/26 04:26:32;;;;;;;14.10;10.65;;;5.80;99.90;;;;;;4981031;28;20447;-52
2021/12/26 04:28:57;;;;;;;16.27;11.40;;;5.80;99.90;;;;;;4972462;28;20210;-52
2021/12/26 04:31:23;;;;;;;16.27;10.43;;;5.80;99.90;;;;;;4972559;28;20461;-52
2021/12/26 04:33:49;;;;;;;13.57;11.10;;;5.90;99.90;;;;;;4972455;28;20817;-53
2021/12/26 04:36:16;;;;;;;12.60;10.40;;;5.80;99.90;;;;;;4971863;28;20683;-52
2021/12/26 04:38:42;;;;;;;14.65;10.70;;;6.00;99.90;;;;;;4972167;28;20248;-52
2021/12/26 04:41:08;;;;;;;13.57;9.85;;;5.30;99.90;;;;;;4975211;28;20545;-52
2021/12/26 04:43:36;;;;;;;13.43;10.80;;;5.90;99.90;;;;;;4972038;28;20199;-52
2021/12/26 04:46:06;;;;;;;14.93;10.48;;;5.90;99.90;;;;;;4972326;28;20429;-52
2021/12/26 04:48:34;;;;;;;14.35;10.27;;;5.80;99.90;;;;;;4972168;28;20585;-52
2021/12/26 04:51:01;;;;;;;13.95;11.05;;;5.50;99.90;;;;;;4972268;28;20180;-53
2021/12/26 04:53:27;;;;;;;13.98;9.88;;;6.10;99.90;;;;;;4971461;28;20194;-52
2021/12/26 04:55:53;;;;;;;13.27;10.57;;;6.10;99.90;;;;;;4971782;28;20274;-52
2021/12/26 04:58:19;;;;;;;15.33;10.23;;;5.90;99.90;;;;;;4975786;28;20470;-52
2021/12/26 05:00:45;;;;;;;18.60;12.30;;;6.10;99.90;;;;;;4978046;28;20279;-52
2021/12/26 05:03:11;;;;;;;14.50;11.48;;;6.10;99.90;;;;;;4972314;28;20449;-52
2021/12/26 05:05:37;;;;;;;12.60;9.87;;;6.00;99.90;;;;;;4971528;28;20670;-51
2021/12/26 05:08:04;;;;;;;13.87;10.77;;;6.20;99.90;;;;;;4971830;28;20436;-52
2021/12/26 05:10:30;;;;;;;16.00;11.00;;;6.00;99.90;;;;;;4971811;28;20438;-52
2021/12/26 05:12:57;;;;;;;15.68;10.95;;;6.10;99.90;;;;;;4977918;28;20190;-52
2021/12/26 05:15:23;;;;;;;14.40;10.52;;;6.30;99.90;;;;;;4976241;28;20190;-52
2021/12/26 05:17:50;;;;;;;15.17;11.40;;;6.40;99.90;;;;;;4971522;28;20212;-52
2021/12/26 05:20:18;;;;;;;15.25;11.20;;;6.30;99.90;;;;;;4971649;28;20630;-52
2021/12/26 05:22:45;;;;;;;16.08;10.60;;;6.60;99.90;;;;;;4982631;28;20183;-52
2021/12/26 05:25:11;;;;;;;13.80;10.27;;;6.10;99.90;;;;;;4971774;28;20199;-52
2021/12/26 05:27:37;;;;;;;12.75;10.32;;;6.20;99.90;;;;;;4971044;28;20221;-51
2021/12/26 05:30:05;;;;;;;16.05;12.27;;;6.10;99.90;;;;;;4971639;28;20211;-51
2021/12/26 05:32:31;;;;;;;15.35;11.40;;;5.90;99.90;;;;;;4977958;28;20197;-52
2021/12/26 05:34:56;;;;;;;15.80;10.70;;;5.70;99.90;;;;;;4976004;28;20283;-52
2021/12/26 05:37:22;;;;;;;14.60;10.90;;;5.10;99.90;;;;;;4971205;28;20225;-52
2021/12/26 05:39:47;;;;;;;17.47;11.93;;;5.80;99.90;;;;;;4971537;28;20306;-52
2021/12/26 05:42:16;;;;;;;14.67;10.93;;;6.00;99.90;;;;;;4971213;28;20227;-52
2021/12/26 05:44:46;;;;;;;14.50;10.95;;;5.70;99.90;;;;;;4971647;28;20186;-52
2021/12/26 05:47:13;;;;;;;17.08;12.13;;;5.80;99.90;;;;;;4971586;28;20194;-52
2021/12/26 05:49:39;;;;;;;17.33;12.27;;;6.00;99.90;;;;;;4971982;28;20229;-52
2021/12/26 05:52:05;;;;;;;14.85;11.35;;;5.40;99.90;;;;;;4971552;28;20657;-53
2021/12/26 05:54:32;;;;;;;17.85;12.07;;;6.00;99.90;;;;;;4971552;28;20196;-53
2021/12/26 05:56:57;;;;;;;14.93;11.32;;;5.40;99.90;;;;;;4977875;28;20221;-53
2021/12/26 05:59:23;;;;;;;15.20;11.67;;;5.60;99.90;;;;;;4978441;28;20203;-53
2021/12/26 06:01:49;;;;;;;18.37;11.77;;;5.90;99.90;;;;;;4975135;28;20175;-53
2021/12/26 06:04:15;;;;;;;16.30;11.00;;;5.60;99.90;;;;;;4975221;28;20632;-53
2021/12/26 06:06:40;;;;;;;14.30;10.77;;;6.10;99.90;;;;;;4975051;28;20469;-53
2021/12/26 06:09:06;;;;;;;17.50;12.77;;;5.90;99.90;;;;;;4973637;28;20458;-53
2021/12/26 06:11:32;;;;;;;24.37;12.57;;;5.70;99.90;;;;;;4976961;28;20188;-53
2021/12/26 06:13:58;;;;;;;18.52;11.55;;;5.70;99.90;;;;;;4978328;28;20186;-52
2021/12/26 06:16:24;;;;;;;18.23;11.97;;;5.80;99.90;;;;;;4974790;28;20210;-52
2021/12/26 06:18:50;;;;;;;15.83;11.53;;;5.90;99.90;;;;;;4975216;28;20211;-51
2021/12/26 06:21:15;;;;;;;17.57;12.20;;;5.50;99.90;;;;;;4974832;28;20288;-51
2021/12/26 06:23:41;;;;;;;17.23;13.07;;;6.00;99.90;;;;;;4979347;28;20439;-53
2021/12/26 06:26:07;;;;;;;17.40;11.93;;;6.40;99.90;;;;;;4975118;28;20493;-51
2021/12/26 06:28:32;;;;;;;17.00;12.60;;;6.20;99.90;;;;;;4976756;28;20298;-52
2021/12/26 06:30:58;;;;;;;16.67;11.93;;;6.40;99.90;;;;;;4974961;28;20190;-53
2021/12/26 06:33:24;;;;;;;17.30;12.00;;;6.20;99.90;;;;;;4974845;28;20537;-53
2021/12/26 06:35:50;;;;;;;15.30;11.83;;;6.20;99.90;;;;;;4974762;28;20192;-54
2021/12/26 06:38:16;;;;;;;16.10;11.10;;;6.50;99.90;;;;;;4977834;28;20658;-51
2021/12/26 06:40:42;;;;;;;16.90;11.50;;;6.00;99.90;;;;;;4982056;28;20195;-50
2021/12/26 06:43:08;;;;;;;16.33;11.57;;;6.20;99.90;;;;;;4976987;28;20208;-51
2021/12/26 06:45:34;;;;;;;15.38;10.65;;;6.00;99.90;;;;;;4974714;28;20266;-51
2021/12/26 06:48:02;;;;;;;17.77;12.02;;;6.00;99.90;;;;;;4973990;28;20267;-54
2021/12/26 06:50:28;;;;;;;16.02;12.73;;;6.00;99.90;;;;;;4974064;28;20198;-54
2021/12/26 06:52:54;;;;;;;16.13;11.82;;;6.00;99.90;;;;;;4974330;28;20188;-52
2021/12/26 06:55:20;;;;;;;17.67;11.70;;;5.90;99.90;;;;;;4974542;28;20195;-52
2021/12/26 06:57:46;;;;;;;18.05;12.52;;;5.90;99.90;;;;;;4977195;28;20514;-54
2021/12/26 07:00:15;;;;;;;15.45;11.80;;;6.00;99.90;;;;;;4974551;28;20235;-52
2021/12/26 07:02:41;;;;;;;20.30;12.73;;;6.10;99.90;;;;;;4974333;28;20728;-52
2021/12/26 07:05:07;;;;;;;18.50;12.52;;;6.10;99.90;;;;;;4973393;28;20182;-52
2021/12/26 07:07:33;;;;;;;20.52;12.43;;;6.00;99.90;;;;;;4972716;28;20198;-52
2021/12/26 07:09:59;;;;;;;17.33;11.87;;;6.10;99.90;;;;;;4973773;28;20215;-51
2021/12/26 07:12:25;;;;;;;19.38;13.25;;;5.90;99.90;;;;;;4973794;28;20464;-52
2021/12/26 07:14:51;;;;;;;17.33;11.73;;;6.20;99.90;;;;;;4982692;28;20665;-52
2021/12/26 07:17:16;;;;;;;18.77;13.10;;;5.90;99.90;;;;;;4976283;28;20212;-51
2021/12/26 07:19:42;;;;;;;17.60;12.20;;;5.40;99.90;;;;;;4973729;28;20211;-51
2021/12/26 07:22:08;;;;;;;19.53;13.70;;;5.90;99.90;;;;;;4973259;28;20183;-51
2021/12/26 07:24:34;;;;;;;18.43;12.33;;;5.30;99.90;;;;;;4974055;28;20266;-51
2021/12/26 07:26:59;;;;;;;18.87;13.03;;;5.70;99.90;;;;;;4973159;28;20565;-52
2021/12/26 07:29:25;;;;;;;21.77;13.63;;;5.70;99.90;;;;;;4972377;28;20549;-52
2021/12/26 07:31:51;;;;;;;20.52;13.68;;;5.90;99.90;;;;;;4978938;28;20212;-52
2021/12/26 07:34:17;;;;;;;20.60;14.63;;;6.30;99.90;;;;;;4973624;28;20250;-52
2021/12/26 07:36:43;;;;;;;20.57;13.37;;;5.90;99.90;;;;;;4975486;28;20565;-52
2021/12/26 07:39:08;;;;;;;18.10;11.90;;;5.90;99.90;;;;;;4973177;28;20235;-51
2021/12/26 07:41:34;;;;;;;17.87;12.83;;;6.00;99.90;;;;;;4972786;28;20185;-51
2021/12/26 07:44:00;;;;;;;19.43;13.63;;;5.90;99.90;;;;;;4973465;28;20207;-52
2021/12/26 07:46:26;;;;;;;19.10;12.10;;;5.80;99.90;;;;;;4973280;28;20190;-52
2021/12/26 07:48:52;;;;;;;17.98;11.85;;;6.00;99.90;;;;;;4978385;28;20806;-52
2021/12/26 07:51:19;;;;;;;21.67;13.93;;;6.00;99.90;;;;;;4973318;28;20187;-51
2021/12/26 07:53:46;;;;;;;20.65;13.30;;;5.40;99.90;;;;;;4973220;28;20183;-52
2021/12/26 07:56:14;;;;;;;17.70;12.00;;;6.30;99.90;;;;;;4972944;28;20254;-51
2021/12/26 07:58:40;;;;;;;18.85;12.73;;;6.20;99.90;;;;;;4981282;28;20199;-51
2021/12/26 08:01:06;;;;;;;19.80;14.70;;;6.10;99.90;;;;;;4973221;28;20665;-52
2021/12/26 08:03:34;;;;;;;18.40;12.35;;;5.90;99.90;;;;;;4972911;28;20439;-52
2021/12/26 08:06:02;;;;;;;20.52;14.40;;;6.20;99.90;;;;;;4978221;28;20350;-52
2021/12/26 08:08:27;;;;;;;17.08;13.15;;;6.20;99.90;;;;;;4978839;28;20235;-51
2021/12/26 08:10:53;;;;;;;18.10;12.37;;;6.70;99.90;;;;;;4971109;28;20259;-52
2021/12/26 08:13:19;;;;;;;19.73;14.07;;;6.20;99.90;;;;;;4972422;28;20560;-52
2021/12/26 08:15:44;;;;;;;17.27;13.47;;;6.50;99.90;;;;;;4972792;28;20233;-52
2021/12/26 08:18:10;;;;;;;18.60;13.83;;;6.40;99.90;;;;;;4972509;28;20220;-51
2021/12/26 08:20:36;;;;;;;19.47;14.07;;;6.80;99.90;;;;;;4973978;28;20181;-52
2021/12/26 08:23:01;;;;;;;21.67;14.80;;;6.90;99.90;;;;;;4969663;28;20300;-52
2021/12/26 08:25:29;;;;;;;18.20;14.27;;;6.90;99.90;;;;;;4971101;28;20235;-53
2021/12/26 08:27:55;;;;;;;18.67;13.50;;;6.60;99.90;;;;;;4972029;28;20200;-52
2021/12/26 08:30:21;;;;;;;18.80;14.10;;;6.50;99.90;;;;;;4972627;28;20188;-52
2021/12/26 08:32:50;;;;;;;18.90;13.87;;;7.10;99.90;;;;;;4971583;28;20530;-53
2021/12/26 08:35:16;;;;;;;18.42;13.48;;;7.20;99.90;;;;;;4972137;28;20176;-51
2021/12/26 08:37:42;;;;;;;18.07;13.13;;;7.60;99.90;;;;;;4972462;28;20285;-53
2021/12/26 08:40:09;;;;;;;19.33;13.10;;;7.40;99.90;;;;;;4978242;28;20204;-52
2021/12/26 08:42:35;;;;;;;16.02;12.20;;;7.20;99.90;;;;;;4971856;28;20484;-52
2021/12/26 08:45:01;;;;;;;20.30;15.00;;;7.10;99.90;;;;;;4970837;28;20189;-52
2021/12/26 08:47:27;;;;;;;17.60;13.38;;;7.20;99.90;;;;;;4972038;28;20937;-52
2021/12/26 08:49:52;;;;;;;18.40;12.77;;;7.30;99.90;;;;;;4972140;28;20236;-53
2021/12/26 08:52:18;;;;;;;18.73;13.47;;;7.40;99.90;;;;;;4976134;28;20192;-52
2021/12/26 08:54:44;;;;;;;18.97;13.17;;;7.70;99.90;;;;;;4971984;28;20407;-52
2021/12/26 08:57:10;;;;;;;17.73;13.37;;;7.50;99.90;;;;;;4972277;28;20300;-53
2021/12/26 08:59:38;;;;;;;17.92;12.73;;;7.60;99.90;;;;;;4972967;28;20332;-52
2021/12/26 09:02:08;;;;;;;18.92;12.50;;;7.70;99.90;;;;;;4972536;28;20180;-53
2021/12/26 09:04:36;;;;;;;16.00;12.18;;;7.80;99.90;;;;;;4971774;28;20196;-53
2021/12/26 09:07:02;;;;;;;19.15;13.48;;;7.70;99.90;;;;;;4971806;28;20203;-52
2021/12/26 09:09:29;;;;;;;21.05;13.93;;;7.50;99.90;;;;;;4971696;28;20204;-53
2021/12/26 09:11:58;;;;;;;17.17;12.85;;;7.70;99.90;;;;;;4976767;28;20190;-53
2021/12/26 09:14:24;;;;;;;18.63;12.30;;;7.60;99.90;;;;;;4979095;28;20203;-53
2021/12/26 09:16:50;;;;;;;17.98;13.20;;;7.30;99.90;;;;;;4971561;28;20222;-53
2021/12/26 09:19:15;;;;;;;19.05;13.30;;;7.70;99.90;;;;;;4971483;28;20196;-52
2021/12/26 09:21:41;;;;;;;18.20;13.77;;;7.90;99.90;;;;;;4976338;28;20179;-53
2021/12/26 09:24:07;;;;;;;18.87;13.37;;;7.90;99.90;;;;;;4972573;28;20199;-52
2021/12/26 09:26:33;;;;;;;17.37;12.77;;;7.60;99.90;;;;;;4971352;28;20196;-53
2021/12/26 09:28:59;;;;;;;20.60;15.77;;;7.60;99.90;;;;;;4971313;28;20615;-52
2021/12/26 09:31:25;;;;;;;25.77;18.65;;;7.10;99.90;;;;;;4972486;28;20557;-52
2021/12/26 09:33:51;;;;;;;20.40;14.17;;;7.80;99.90;;;;;;4971775;28;20196;-52
2021/12/26 09:36:16;;;;;;;18.20;13.40;;;7.60;99.90;;;;;;4970724;28;20483;-52
2021/12/26 09:38:42;;;;;;;18.80;13.87;;;7.80;99.90;;;;;;4970457;28;20261;-52
2021/12/26 09:41:08;;;;;;;18.73;13.10;;;7.40;99.90;;;;;;4971662;28;20180;-53
2021/12/26 09:43:34;;;;;;;18.40;12.60;;;7.50;99.90;;;;;;4983375;28;20657;-52
2021/12/26 09:46:00;;;;;;;16.47;12.37;;;7.50;99.90;;;;;;4971239;28;20191;-52
2021/12/26 09:48:26;;;;;;;15.83;12.67;;;7.50;99.90;;;;;;4971501;28;20544;-52
2021/12/26 09:50:51;;;;;;;18.73;12.87;;;7.70;99.90;;;;;;4975793;28;20459;-52
2021/12/26 09:53:17;;;;;;;18.80;13.50;;;7.90;99.90;;;;;;4971788;28;20428;-53
2021/12/26 09:55:43;;;;;;;16.03;13.00;;;7.60;99.90;;;;;;4971400;28;20192;-53
2021/12/26 09:58:08;;;;;;;17.37;12.47;;;8.20;99.90;;;;;;4970517;28;20216;-53
2021/12/26 10:00:38;;;;;;;16.30;12.63;;;8.20;99.90;;;;;;4971573;28;20618;-53
2021/12/26 10:03:19;;;;;;;17.38;12.88;;;8.30;99.90;;;;;;4971457;28;20180;-52
2021/12/26 10:06:12;;;;;;;20.00;14.30;;;8.50;99.90;;;;;;4972059;28;20184;-52
2021/12/26 10:09:01;;;;;;;17.23;12.95;;;8.60;99.90;;;;;;4971342;28;20208;-53
2021/12/26 10:11:38;;;;;;;16.73;13.93;;;8.80;99.90;;;;;;4970722;28;20191;-55
2021/12/26 10:14:09;;;;;;;17.55;14.00;;;8.70;99.90;;;;;;4971478;28;20233;-53
2021/12/26 10:16:49;;;;;;;18.00;13.70;;;8.80;99.90;;;;;;4971179;28;20208;-52
2021/12/26 10:19:16;;;;;;;16.90;12.38;;;8.60;99.90;;;;;;4970806;28;20244;-52
2021/12/26 10:21:45;;;;;;;15.60;11.68;;;8.60;99.90;;;;;;4985374;28;20266;-53
2021/12/26 10:24:15;;;;;;;18.25;12.73;;;8.30;99.90;;;;;;4971046;28;20199;-53
2021/12/26 10:26:46;;;;;;;16.95;12.38;;;8.80;99.90;;;;;;4970613;28;20185;-53
2021/12/26 10:29:15;;;;;;;16.42;11.52;;;8.90;99.90;;;;;;4971005;28;20209;-52
2021/12/26 10:32:10;;;;;;;18.50;13.27;;;8.90;99.90;;;;;;4971156;28;20188;-53
2021/12/26 10:34:40;;;;;;;16.17;13.15;;;8.90;99.90;;;;;;4971261;28;20243;-53
2021/12/26 10:37:10;;;;;;;16.88;12.52;;;8.80;99.90;;;;;;4971347;28;20316;-53
2021/12/26 10:39:57;;;;;;;16.77;12.55;;;9.00;99.90;;;;;;4973012;28;20555;-52
2021/12/26 10:42:31;;;;;;;16.83;12.57;;;8.90;99.90;;;;;;4971085;28;20272;-53
2021/12/26 10:45:04;;;;;;;18.15;13.45;;;9.20;99.90;;;;;;4974603;28;20274;-50
2021/12/26 10:47:33;;;;;;;17.50;13.27;;;9.40;99.90;;;;;;4974444;28;20191;-53
2021/12/26 10:50:06;;;;;;;15.73;12.80;;;9.30;99.90;;;;;;4989246;28;20213;-53
2021/12/26 10:52:41;;;;;;;16.85;12.60;;;9.30;99.90;;;;;;4973740;28;20189;-53
2021/12/26 10:55:12;;;;;;;15.27;12.68;;;9.50;99.90;;;;;;4974902;28;20194;-53
2021/12/26 10:57:41;;;;;;;14.23;11.75;;;9.50;99.90;;;;;;4982870;28;20215;-53
2021/12/26 11:00:09;;;;;;;15.18;12.30;;;9.40;99.90;;;;;;4974678;28;20263;-53
2021/12/26 11:02:36;;;;;;;17.45;13.10;;;9.40;99.90;;;;;;4974491;28;20220;-53
2021/12/26 11:05:09;;;;;;;15.55;12.60;;;9.20;99.90;;;;;;4974438;28;20184;-53
2021/12/26 11:07:45;;;;;;;16.73;12.93;;;9.40;99.90;;;;;;4973804;28;20192;-53
2021/12/26 11:10:24;;;;;;;18.75;13.20;;;9.50;99.90;;;;;;4974281;28;20592;-53
2021/12/26 11:12:52;;;;;;;15.88;11.80;;;9.70;99.90;;;;;;4973979;28;20220;-53
2021/12/26 11:15:20;;;;;;;13.05;11.02;;;9.70;99.90;;;;;;4973898;28;20650;-52
2021/12/26 11:17:50;;;;;;;14.05;10.50;;;9.80;99.90;;;;;;4973460;28;20348;-53
2021/12/26 11:20:22;;;;;;;12.35;10.13;;;9.40;99.90;;;;;;4981414;28;20569;-53
2021/12/26 11:22:48;;;;;;;10.98;9.88;;;9.80;99.90;;;;;;4973941;28;20180;-53
2021/12/26 11:25:14;;;;;;;12.73;9.70;;;10.00;99.90;;;;;;4973692;28;20681;-52
2021/12/26 11:27:40;;;;;;;11.63;9.63;;;10.00;99.90;;;;;;4977741;28;20200;-53
2021/12/26 11:30:07;;;;;;;12.93;9.73;;;10.20;99.90;;;;;;4974297;28;20511;-53
2021/12/26 11:32:34;;;;;;;10.27;9.18;;;10.70;99.90;;;;;;4973732;28;20541;-53
2021/12/26 11:35:00;;;;;;;11.27;8.90;;;11.10;99.90;;;;;;4997236;28;20184;-53
2021/12/26 11:37:27;;;;;;;9.40;8.50;;;11.60;99.90;;;;;;4981333;28;20262;-54
2021/12/26 11:39:54;;;;;;;11.73;10.35;;;11.80;99.90;;;;;;4973509;28;20214;-53
2021/12/26 11:42:36;;;;;;;12.77;11.30;;;12.10;99.90;;;;;;4975770;28;20609;-51
2021/12/26 11:45:14;;;;;;;15.98;11.43;;;11.60;99.90;;;;;;4973223;28;20190;-52
2021/12/26 11:48:21;;;;;;;10.95;9.85;;;11.40;99.90;;;;;;4973784;28;20181;-52
2021/12/26 11:50:53;;;;;;;9.88;8.75;;;11.30;99.90;;;;;;4989272;28;20826;-52
2021/12/26 11:53:47;;;;;;;8.48;7.57;;;11.20;99.90;;;;;;4978340;28;20199;-51
2021/12/26 11:56:42;;;;;;;8.25;7.45;;;11.40;99.90;;;;;;4962157;28;20571;-51
2021/12/26 11:59:32;;;;;;;7.15;6.53;;;11.20;99.90;;;;;;4960309;28;20286;-51
2021/12/26 12:01:58;;;;;;;8.63;7.72;;;10.70;99.90;;;;;;4984549;28;20686;-52
2021/12/26 12:04:25;;;;;;;9.20;8.18;;;11.00;99.90;;;;;;4973744;28;20199;-52
2021/12/26 12:06:54;;;;;;;8.55;7.57;;;10.50;99.90;;;;;;4972320;28;20193;-52
2021/12/26 12:09:35;;;;;;;8.65;7.72;;;10.60;99.90;;;;;;4972814;28;20229;-52
2021/12/26 12:12:03;;;;;;;10.07;8.95;;;10.70;99.90;;;;;;4972556;28;20371;-52
2021/12/26 12:14:47;;;;;;;8.63;7.78;;;10.30;99.90;;;;;;4972822;28;20195;-51
2021/12/26 12:17:18;;;;;;;9.15;8.18;;;10.10;99.90;;;;;;4987442;28;20208;-51
2021/12/26 12:20:06;;;;;;;8.85;7.95;;;10.30;99.90;;;;;;4972531;28;20693;-52
2021/12/26 12:22:31;;;;;;;8.13;7.30;;;10.30;99.90;;;;;;4966912;28;20189;-52
2021/12/26 12:25:17;;;;;;;9.90;8.40;;;10.70;99.90;;;;;;4972831;28;20272;-52
2021/12/26 12:28:22;;;;;;;9.43;8.45;;;10.70;99.90;;;;;;4979362;28;20259;-52
2021/12/26 12:30:51;;;;;;;8.73;7.68;;;10.80;99.90;;;;;;4972628;28;20193;-51
2021/12/26 12:33:25;;;;;;;9.90;7.88;;;11.00;99.90;;;;;;4972760;28;20182;-52
2021/12/26 12:35:53;;;;;;;8.73;7.82;;;11.10;99.90;;;;;;4971756;28;20190;-52
2021/12/26 12:38:26;;;;;;;9.00;8.10;;;10.90;99.90;;;;;;4973722;28;20612;-52
2021/12/26 12:40:53;;;;;;;9.07;7.07;;;10.60;99.90;;;;;;4972433;28;20186;-52
2021/12/26 12:43:22;;;;;;;8.60;7.80;;;10.80;99.90;;;;;;4983684;28;20201;-52
2021/12/26 12:45:54;;;;;;;8.70;7.75;;;10.90;99.90;;;;;;4972305;28;20796;-52
2021/12/26 12:48:25;;;;;;;8.52;7.60;;;10.10;99.90;;;;;;4970523;28;20347;-52
2021/12/26 12:50:53;;;;;;;8.65;7.60;;;10.70;99.90;;;;;;4971562;28;20247;-52